Time;durP1;ratioP1;P1;durP2;ratioP2;P2;SDS_P1;SDS_P2;PMS_P1;PMS_P2;Temp;Humidity;BMP_temperature;BMP_pressure;BME280_temperature;BME280_humidity;BME280_pressure;Samples;Min_cycle;Max_cycle;Signal;HPM_P1;HPM_P2
2021/12/19 00:01:11;;;;;;;17.60;5.77;;;6.80;99.90;;;;;;5018437;28;20182;-83
2021/12/19 00:09:07;;;;;;;12.73;4.70;;;6.90;99.90;;;;;;5025121;28;20198;-84
2021/12/19 00:11:34;;;;;;;14.90;6.03;;;6.90;99.90;;;;;;5018958;28;20182;-81
2021/12/19 00:14:00;;;;;;;14.07;5.53;;;6.90;99.90;;;;;;5011936;28;20258;-83
2021/12/19 00:16:27;;;;;;;21.93;7.10;;;6.90;99.90;;;;;;5017837;28;20243;-80
2021/12/19 00:18:53;;;;;;;13.90;6.60;;;6.90;99.90;;;;;;5002170;28;20275;-81
2021/12/19 00:21:20;;;;;;;17.67;8.13;;;6.90;99.90;;;;;;5011932;28;20186;-81
2021/12/19 00:23:48;;;;;;;18.27;7.73;;;6.90;99.90;;;;;;5030765;28;20185;-81
2021/12/19 00:26:15;;;;;;;12.30;6.00;;;6.90;99.90;;;;;;5013232;28;20201;-80
2021/12/19 00:28:41;;;;;;;15.57;6.70;;;6.90;99.90;;;;;;5012642;28;20173;-80
2021/12/19 00:31:09;;;;;;;16.13;5.37;;;6.90;99.90;;;;;;5016727;28;20599;-80
2021/12/19 00:33:36;;;;;;;12.37;6.03;;;6.90;99.90;;;;;;5020275;28;20184;-79
2021/12/19 00:36:02;;;;;;;16.97;6.20;;;6.90;99.90;;;;;;5024255;28;20230;-79
2021/12/19 00:38:28;;;;;;;17.00;7.07;;;6.90;99.90;;;;;;5009115;28;20224;-80
2021/12/19 00:40:54;;;;;;;13.43;5.60;;;7.00;99.90;;;;;;5014460;28;20169;-81
2021/12/19 00:46:07;;;;;;;13.97;3.97;;;7.00;99.90;;;;;;5034191;28;20182;-80
2021/12/19 00:48:40;;;;;;;17.77;5.80;;;7.00;99.90;;;;;;5017258;28;20174;-80
2021/12/19 00:51:07;;;;;;;18.63;6.63;;;6.90;99.90;;;;;;5006787;28;20174;-79
2021/12/19 00:53:38;;;;;;;17.33;6.00;;;6.90;99.90;;;;;;5007875;28;20170;-79
2021/12/19 00:56:04;;;;;;;14.13;5.63;;;6.90;99.90;;;;;;5001307;28;20170;-80
2021/12/19 00:58:30;;;;;;;14.63;5.43;;;6.90;99.90;;;;;;5015474;28;20221;-80
2021/12/19 01:00:56;;;;;;;13.73;6.17;;;6.90;99.90;;;;;;5008033;28;20209;-80
2021/12/19 01:03:22;;;;;;;17.70;7.33;;;7.00;99.90;;;;;;5014595;28;20270;-81
2021/12/19 01:06:01;;;;;;;16.67;5.10;;;7.00;99.90;;;;;;5008907;28;20212;-80
2021/12/19 01:08:30;;;;;;;19.83;6.77;;;7.00;99.90;;;;;;5014290;28;20185;-81
2021/12/19 01:10:56;;;;;;;18.33;7.20;;;7.00;99.90;;;;;;5044945;28;20186;-82
2021/12/19 01:13:22;;;;;;;18.50;7.27;;;7.00;99.90;;;;;;5018497;28;20554;-82
2021/12/19 01:15:50;;;;;;;17.27;7.17;;;7.00;99.90;;;;;;5012485;28;20167;-82
2021/12/19 01:18:16;;;;;;;19.03;6.03;;;7.00;99.90;;;;;;5015654;28;20182;-82
2021/12/19 01:20:42;;;;;;;12.47;4.73;;;7.00;99.90;;;;;;5012963;28;20214;-82
2021/12/19 01:23:13;;;;;;;17.33;6.83;;;7.00;99.90;;;;;;5018959;28;20185;-82
2021/12/19 01:25:53;;;;;;;16.93;6.50;;;7.00;99.90;;;;;;5027619;28;20171;-80
2021/12/19 01:28:31;;;;;;;22.47;8.23;;;7.00;99.90;;;;;;5043440;28;20213;-80
2021/12/19 01:30:59;;;;;;;19.37;6.93;;;7.00;99.90;;;;;;5037834;28;20171;-79
2021/12/19 01:33:25;;;;;;;16.63;6.87;;;7.00;99.90;;;;;;5008096;28;20201;-79
2021/12/19 01:36:18;;;;;;;22.43;7.47;;;7.00;99.90;;;;;;5014641;28;20605;-79
2021/12/19 01:38:45;;;;;;;25.33;6.77;;;7.00;99.90;;;;;;5009946;28;20175;-80
2021/12/19 01:41:11;;;;;;;21.47;8.30;;;7.00;99.90;;;;;;5006842;28;20174;-81
2021/12/19 01:43:36;;;;;;;22.77;7.80;;;7.00;99.90;;;;;;5014612;28;20260;-80
2021/12/19 01:46:03;;;;;;;20.67;8.10;;;7.00;99.90;;;;;;5014882;28;20637;-80
2021/12/19 01:48:28;;;;;;;28.83;8.90;;;7.00;99.90;;;;;;5007889;28;20202;-80
2021/12/19 01:50:57;;;;;;;23.37;8.20;;;7.00;99.90;;;;;;5020545;28;20183;-80
2021/12/19 01:53:23;;;;;;;21.87;8.93;;;7.00;99.90;;;;;;5016669;28;20210;-81
2021/12/19 01:55:50;;;;;;;17.53;8.20;;;7.00;99.90;;;;;;5006003;28;20166;-80
2021/12/19 01:58:16;;;;;;;18.90;6.17;;;7.00;99.90;;;;;;5013267;28;20257;-81
2021/12/19 02:00:57;;;;;;;20.63;6.73;;;7.10;99.90;;;;;;5012259;28;20205;-81
2021/12/19 02:03:23;;;;;;;17.87;6.20;;;7.00;99.90;;;;;;5014357;28;20271;-80
2021/12/19 02:05:55;;;;;;;17.77;6.63;;;7.10;99.90;;;;;;5015392;28;20671;-82
2021/12/19 02:08:21;;;;;;;14.97;5.83;;;7.10;99.90;;;;;;5024419;28;20177;-81
2021/12/19 02:10:48;;;;;;;18.57;8.00;;;7.10;99.90;;;;;;5017709;28;20229;-80
2021/12/19 02:13:16;;;;;;;18.37;6.10;;;7.10;99.90;;;;;;5005431;28;20171;-80
2021/12/19 02:15:43;;;;;;;13.37;5.87;;;7.10;99.90;;;;;;5017865;28;20717;-81
2021/12/19 02:18:18;;;;;;;21.20;7.10;;;7.10;99.90;;;;;;5034194;28;20171;-80
2021/12/19 02:20:50;;;;;;;15.07;6.17;;;7.10;99.90;;;;;;5014653;28;20205;-80
2021/12/19 02:23:17;;;;;;;20.43;7.27;;;7.00;99.90;;;;;;5013305;28;20181;-80
2021/12/19 02:25:45;;;;;;;17.57;6.37;;;7.00;99.90;;;;;;5020107;28;20186;-81
2021/12/19 02:28:12;;;;;;;19.87;7.10;;;7.00;99.90;;;;;;5013275;28;20189;-80
2021/12/19 02:30:38;;;;;;;13.83;6.23;;;7.00;99.90;;;;;;5018512;28;20223;-80
2021/12/19 02:33:12;;;;;;;18.20;5.53;;;7.00;99.90;;;;;;5018606;28;20188;-80
2021/12/19 02:35:40;;;;;;;18.40;7.50;;;7.00;99.90;;;;;;5007488;28;20253;-80
2021/12/19 02:38:34;;;;;;;21.83;7.23;;;7.00;99.90;;;;;;5014798;28;20182;-79
2021/12/19 02:49:20;;;;;;;14.43;4.20;;;7.00;99.90;;;;;;5027546;28;20198;-80
2021/12/19 02:51:46;;;;;;;13.60;5.43;;;6.90;99.90;;;;;;5019492;28;20175;-80
2021/12/19 02:54:12;;;;;;;17.23;7.33;;;6.90;99.90;;;;;;5013881;28;20598;-80
2021/12/19 02:56:38;;;;;;;15.73;5.47;;;6.90;99.90;;;;;;5012441;28;20178;-81
2021/12/19 02:59:04;;;;;;;17.23;5.93;;;7.00;99.90;;;;;;5019324;28;20213;-81
2021/12/19 03:01:30;;;;;;;17.43;6.07;;;7.00;99.90;;;;;;5010768;28;20182;-80
2021/12/19 03:03:59;;;;;;;17.87;6.50;;;7.00;99.90;;;;;;5014584;28;20178;-81
2021/12/19 03:06:25;;;;;;;13.93;5.23;;;7.00;99.90;;;;;;5016523;28;20590;-81
2021/12/19 03:08:51;;;;;;;16.73;5.73;;;7.00;99.90;;;;;;5017170;28;20194;-81
2021/12/19 03:19:19;;;;;;;17.90;6.60;;;6.90;99.90;;;;;;5033394;28;20606;-80
2021/12/19 03:21:44;;;;;;;16.13;6.37;;;6.90;99.90;;;;;;5006592;28;20175;-80
2021/12/19 03:24:10;;;;;;;21.07;6.47;;;6.90;99.90;;;;;;5013675;28;20230;-79
2021/12/19 03:26:36;;;;;;;15.20;6.13;;;6.90;99.90;;;;;;5018393;28;20229;-79
2021/12/19 03:29:02;;;;;;;17.93;6.83;;;6.90;99.90;;;;;;5005553;28;20296;-80
2021/12/19 03:31:29;;;;;;;13.23;6.23;;;6.90;99.90;;;;;;5013029;28;20188;-80
2021/12/19 03:33:55;;;;;;;15.27;6.83;;;6.90;99.90;;;;;;5016954;28;20253;-80
2021/12/19 03:36:21;;;;;;;12.20;4.97;;;6.90;99.90;;;;;;5013996;28;20209;-80
2021/12/19 03:38:59;;;;;;;11.13;5.07;;;6.90;99.90;;;;;;5019348;28;20684;-81
2021/12/19 03:41:33;;;;;;;16.33;6.60;;;6.90;99.90;;;;;;5003946;28;20212;-81
2021/12/19 03:44:03;;;;;;;18.27;6.87;;;6.90;99.90;;;;;;5026892;28;20208;-81
2021/12/19 03:46:30;;;;;;;13.67;5.47;;;6.80;99.90;;;;;;5018412;28;20665;-80
2021/12/19 03:48:58;;;;;;;13.30;5.40;;;6.80;99.90;;;;;;5014330;28;20202;-81
2021/12/19 03:51:24;;;;;;;9.33;4.50;;;6.80;99.90;;;;;;5018622;28;20182;-81
2021/12/19 03:53:50;;;;;;;11.27;3.97;;;6.80;99.90;;;;;;5016318;28;20174;-81
2021/12/19 03:56:24;;;;;;;10.43;3.80;;;6.80;99.90;;;;;;5008108;28;20653;-80
2021/12/19 03:58:51;;;;;;;12.57;4.23;;;6.90;99.90;;;;;;5013318;28;20204;-80
2021/12/19 04:01:17;;;;;;;5.43;2.90;;;6.90;99.90;;;;;;5003340;28;20193;-81
2021/12/19 04:03:45;;;;;;;9.93;3.87;;;6.80;99.90;;;;;;5022305;28;20181;-82
2021/12/19 04:06:11;;;;;;;9.03;3.03;;;6.70;99.90;;;;;;5020272;28;20176;-81
2021/12/19 04:08:37;;;;;;;8.40;3.30;;;6.60;99.90;;;;;;5010463;28;20188;-80
2021/12/19 04:11:04;;;;;;;8.07;3.40;;;6.50;99.90;;;;;;5017070;28;20205;-81
2021/12/19 04:13:30;;;;;;;7.37;2.77;;;6.50;99.90;;;;;;5019468;28;20323;-81
2021/12/19 04:15:56;;;;;;;7.17;2.43;;;6.40;99.90;;;;;;5022692;28;20186;-80
2021/12/19 04:18:22;;;;;;;5.27;1.90;;;6.40;99.90;;;;;;5031562;28;20197;-80
2021/12/19 04:20:48;;;;;;;5.67;1.80;;;6.40;99.90;;;;;;5029036;28;20192;-81
2021/12/19 04:23:14;;;;;;;4.97;1.70;;;6.40;99.90;;;;;;5021345;28;20179;-79
2021/12/19 04:25:39;;;;;;;4.80;1.80;;;6.30;99.90;;;;;;5017233;28;20577;-79
2021/12/19 04:28:05;;;;;;;6.17;2.33;;;6.40;99.90;;;;;;5034809;28;20211;-80
2021/12/19 04:30:31;;;;;;;4.43;1.90;;;6.30;99.90;;;;;;5005428;28;20196;-80
2021/12/19 04:33:03;;;;;;;5.10;2.10;;;6.30;99.90;;;;;;5009655;28;20192;-80
2021/12/19 04:35:41;;;;;;;5.53;2.03;;;6.20;99.90;;;;;;5026759;28;20188;-80
2021/12/19 04:39:10;;;;;;;4.60;2.50;;;6.20;99.90;;;;;;5009749;28;20256;-80
2021/12/19 04:52:24;;;;;;;7.50;2.40;;;6.20;99.90;;;;;;5046503;28;20198;-80
2021/12/19 04:55:12;;;;;;;6.40;2.77;;;6.10;99.90;;;;;;5060774;28;20169;-79
2021/12/19 05:00:14;;;;;;;8.90;2.50;;;6.20;99.90;;;;;;5049299;28;20191;-80
2021/12/19 05:15:52;;;;;;;6.40;2.70;;;6.20;99.90;;;;;;5043888;28;20200;-79
2021/12/19 05:18:19;;;;;;;7.93;2.47;;;6.30;99.90;;;;;;5066378;28;20192;-80
2021/12/19 05:20:54;;;;;;;6.17;2.40;;;6.30;99.90;;;;;;5034945;28;20198;-80
2021/12/19 05:24:19;;;;;;;8.10;2.93;;;6.20;99.90;;;;;;5032333;28;20193;-80
2021/12/19 05:26:06;;;;;;;8.97;2.77;;;6.30;99.90;;;;;;5043203;28;20179;-80
2021/12/19 05:28:32;;;;;;;11.37;2.50;;;6.30;99.90;;;;;;5036601;28;20177;-80
2021/12/19 05:30:58;;;;;;;6.90;2.13;;;6.30;99.90;;;;;;5028835;28;20192;-80
2021/12/19 05:33:24;;;;;;;9.30;2.90;;;6.30;99.90;;;;;;5032655;28;20193;-80
2021/12/19 05:46:29;;;;;;;9.03;2.97;;;6.40;99.90;;;;;;5027733;28;20295;-80
2021/12/19 05:48:56;;;;;;;7.97;2.60;;;6.40;99.90;;;;;;5019947;28;20282;-80
2021/12/19 05:51:21;;;;;;;11.40;3.53;;;6.50;99.90;;;;;;5027110;28;20639;-80
2021/12/19 05:53:47;;;;;;;11.53;2.90;;;6.50;99.90;;;;;;5020762;28;20173;-81
2021/12/19 05:56:13;;;;;;;10.80;2.97;;;6.60;99.90;;;;;;5033387;28;20175;-80
2021/12/19 05:58:39;;;;;;;8.93;2.70;;;6.60;99.90;;;;;;5008507;28;20166;-81
2021/12/19 06:01:05;;;;;;;11.27;3.00;;;6.60;99.90;;;;;;5014756;28;20169;-80
2021/12/19 06:03:31;;;;;;;12.07;2.83;;;6.70;99.90;;;;;;5014659;28;20207;-80
2021/12/19 06:06:00;;;;;;;8.93;2.60;;;6.70;99.90;;;;;;5008447;28;20237;-80
2021/12/19 06:08:26;;;;;;;9.60;2.20;;;6.70;99.90;;;;;;5012094;28;20191;-80
2021/12/19 06:10:52;;;;;;;7.87;2.30;;;6.80;99.90;;;;;;5013413;28;20200;-81
2021/12/19 06:13:17;;;;;;;6.87;2.17;;;6.80;99.90;;;;;;5008050;28;20246;-80
2021/12/19 06:15:50;;;;;;;6.97;2.10;;;6.90;99.90;;;;;;5015917;28;20277;-81
2021/12/19 06:18:16;;;;;;;12.43;2.60;;;6.90;99.90;;;;;;5013089;28;20186;-80
2021/12/19 06:20:41;;;;;;;9.53;2.33;;;6.90;99.90;;;;;;5019775;28;20213;-80
2021/12/19 06:23:09;;;;;;;10.90;2.50;;;6.90;99.90;;;;;;5011012;28;20187;-81
2021/12/19 06:25:35;;;;;;;13.10;3.07;;;6.90;99.90;;;;;;5021452;28;20170;-81
2021/12/19 06:28:01;;;;;;;11.50;2.83;;;6.90;99.90;;;;;;5007166;28;20205;-81
2021/12/19 06:30:27;;;;;;;14.87;2.93;;;6.80;99.90;;;;;;5016384;28;20202;-81
2021/12/19 06:32:53;;;;;;;11.83;2.60;;;6.80;99.90;;;;;;5011551;28;20282;-81
2021/12/19 06:35:21;;;;;;;7.37;2.13;;;6.90;99.90;;;;;;5014472;28;20199;-80
2021/12/19 06:37:50;;;;;;;12.50;2.83;;;6.90;99.90;;;;;;5013439;28;20200;-81
2021/12/19 06:40:18;;;;;;;10.10;2.60;;;6.90;99.90;;;;;;5009457;28;20623;-81
2021/12/19 06:42:47;;;;;;;14.23;3.27;;;7.00;99.90;;;;;;5015695;28;20617;-81
2021/12/19 06:45:19;;;;;;;12.27;3.20;;;7.00;99.90;;;;;;5019699;28;20553;-81
2021/12/19 06:47:46;;;;;;;10.03;2.33;;;6.90;99.90;;;;;;5015482;28;20205;-81
2021/12/19 06:50:12;;;;;;;10.57;2.47;;;7.00;99.90;;;;;;5012934;28;20202;-81
2021/12/19 06:56:26;;;;;;;13.93;3.30;;;7.00;99.90;;;;;;5022610;28;20234;-81
2021/12/19 06:58:52;;;;;;;11.07;2.53;;;6.90;99.90;;;;;;5023361;28;20255;-81
2021/12/19 07:01:17;;;;;;;9.77;2.37;;;7.00;99.90;;;;;;5016119;28;20178;-81
2021/12/19 07:03:43;;;;;;;7.43;2.20;;;7.00;99.90;;;;;;5022445;28;20259;-81
2021/12/19 07:06:10;;;;;;;10.03;2.70;;;7.00;99.90;;;;;;5015833;28;20181;-81
2021/12/19 07:08:36;;;;;;;12.03;3.13;;;7.10;99.90;;;;;;5022730;28;20165;-82
2021/12/19 07:11:02;;;;;;;11.33;2.70;;;7.00;99.90;;;;;;5016957;28;20264;-82
2021/12/19 07:13:27;;;;;;;11.47;2.90;;;7.00;99.90;;;;;;5020212;28;20185;-81
2021/12/19 07:15:55;;;;;;;8.97;2.23;;;7.00;99.90;;;;;;5020908;28;20182;-82
2021/12/19 07:18:21;;;;;;;10.47;3.20;;;7.00;99.90;;;;;;5018116;28;20238;-82
2021/12/19 07:20:47;;;;;;;8.77;2.30;;;7.00;99.90;;;;;;5019466;28;20289;-82
2021/12/19 07:23:16;;;;;;;11.83;2.23;;;6.90;99.90;;;;;;5009992;28;20234;-82
2021/12/19 07:25:44;;;;;;;13.60;2.43;;;7.00;99.90;;;;;;5016097;28;20634;-82
2021/12/19 07:28:11;;;;;;;10.53;2.40;;;6.90;99.90;;;;;;5015364;28;20266;-81
2021/12/19 07:30:37;;;;;;;11.63;2.50;;;6.90;99.90;;;;;;5026902;28;20199;-81
2021/12/19 07:33:08;;;;;;;6.77;1.83;;;7.00;99.90;;;;;;5020456;28;20683;-81
2021/12/19 07:35:37;;;;;;;9.03;2.00;;;7.00;99.90;;;;;;5012566;28;20182;-81
2021/12/19 07:38:04;;;;;;;6.63;2.13;;;7.00;99.90;;;;;;5015746;28;20175;-81
2021/12/19 07:40:39;;;;;;;6.50;1.90;;;7.00;99.90;;;;;;5013332;28;20207;-80
2021/12/19 07:43:08;;;;;;;9.00;2.23;;;7.10;99.90;;;;;;5027621;28;20181;-81
2021/12/19 07:45:33;;;;;;;10.43;2.60;;;7.10;99.90;;;;;;5037679;28;20671;-81
2021/12/19 07:47:59;;;;;;;10.27;2.53;;;7.10;99.90;;;;;;5019572;28;20206;-81
2021/12/19 07:50:32;;;;;;;9.27;1.87;;;7.10;99.90;;;;;;5019180;28;20202;-81
2021/12/19 07:52:58;;;;;;;12.43;2.20;;;7.10;99.90;;;;;;5037385;28;20185;-81
2021/12/19 07:55:25;;;;;;;8.37;2.30;;;7.20;99.90;;;;;;5018736;28;20239;-81
2021/12/19 07:57:56;;;;;;;9.27;2.30;;;7.20;99.90;;;;;;5020891;28;20179;-81
2021/12/19 08:00:24;;;;;;;7.80;2.30;;;7.20;99.90;;;;;;5015913;28;20207;-81
2021/12/19 08:02:51;;;;;;;11.47;2.23;;;7.20;99.90;;;;;;5020141;28;20523;-80
2021/12/19 08:05:19;;;;;;;8.53;2.00;;;7.20;99.90;;;;;;5045660;28;20178;-81
2021/12/19 08:07:48;;;;;;;8.87;2.00;;;7.20;99.90;;;;;;5027742;28;20304;-82
2021/12/19 08:11:39;;;;;;;12.00;2.53;;;7.20;99.90;;;;;;5020424;28;20609;-80
2021/12/19 08:13:06;;;;;;;8.73;2.17;;;7.20;99.90;;;;;;5008703;28;20179;-81
2021/12/19 08:15:33;;;;;;;14.47;2.67;;;7.20;99.90;;;;;;5012408;28;20177;-81
2021/12/19 08:17:59;;;;;;;11.70;2.40;;;7.20;99.90;;;;;;5033346;28;20182;-81
2021/12/19 08:20:26;;;;;;;8.17;2.30;;;7.10;99.90;;;;;;5016913;28;20205;-81
2021/12/19 08:22:55;;;;;;;10.20;2.23;;;7.10;99.90;;;;;;5008962;28;20267;-81
2021/12/19 08:25:23;;;;;;;9.17;2.03;;;7.10;99.90;;;;;;5018307;28;20179;-81
2021/12/19 08:27:49;;;;;;;10.23;2.60;;;7.20;99.90;;;;;;5003944;28;20284;-81
2021/12/19 08:30:19;;;;;;;8.33;2.07;;;7.20;99.90;;;;;;5026407;28;20706;-81
2021/12/19 08:32:44;;;;;;;7.10;1.83;;;7.30;99.90;;;;;;5018458;28;20194;-82
2021/12/19 08:35:11;;;;;;;10.80;2.10;;;7.20;99.90;;;;;;5019022;28;20179;-81
2021/12/19 08:37:38;;;;;;;8.80;2.17;;;7.30;99.90;;;;;;5018252;28;20226;-82
2021/12/19 08:40:11;;;;;;;8.33;1.97;;;7.30;99.90;;;;;;5009014;28;20197;-82
2021/12/19 08:42:42;;;;;;;7.13;1.87;;;7.30;99.90;;;;;;5011733;28;20182;-81
2021/12/19 08:45:09;;;;;;;8.77;2.10;;;7.30;99.90;;;;;;5018839;28;20182;-81
2021/12/19 08:47:35;;;;;;;11.80;2.27;;;7.20;99.90;;;;;;5019539;28;20233;-82
2021/12/19 08:50:05;;;;;;;9.07;1.83;;;7.20;99.90;;;;;;5019273;28;20237;-81
2021/12/19 08:52:31;;;;;;;12.10;2.67;;;7.30;99.90;;;;;;5019667;28;20177;-82
2021/12/19 08:54:59;;;;;;;14.47;2.47;;;7.30;99.90;;;;;;5018752;28;20188;-81
2021/12/19 08:57:25;;;;;;;14.50;3.00;;;7.30;99.90;;;;;;5016369;28;20233;-81
2021/12/19 08:59:50;;;;;;;10.80;3.13;;;7.30;99.90;;;;;;5017514;28;20201;-82
2021/12/19 09:02:16;;;;;;;12.70;2.40;;;7.30;99.90;;;;;;5019605;28;20206;-82
2021/12/19 09:04:44;;;;;;;10.33;2.37;;;7.30;99.90;;;;;;5020151;28;20183;-82
2021/12/19 09:07:09;;;;;;;13.43;2.50;;;7.40;99.90;;;;;;5018992;28;20356;-82
2021/12/19 09:09:41;;;;;;;11.17;2.60;;;7.40;99.90;;;;;;5016849;28;20221;-82
2021/12/19 09:12:07;;;;;;;11.83;2.57;;;7.40;99.90;;;;;;5017296;28;20269;-82
2021/12/19 09:14:34;;;;;;;17.13;2.67;;;7.40;99.90;;;;;;5012257;28;20186;-81
2021/12/19 09:17:02;;;;;;;12.27;2.77;;;7.40;99.90;;;;;;5018111;28;20174;-82
2021/12/19 09:19:29;;;;;;;14.97;3.20;;;7.40;99.90;;;;;;5016459;28;20202;-82
2021/12/19 09:21:55;;;;;;;12.60;2.30;;;7.50;99.90;;;;;;5014997;28;20174;-82
2021/12/19 09:24:21;;;;;;;15.70;2.60;;;7.40;99.90;;;;;;5018076;28;20266;-82
2021/12/19 09:26:54;;;;;;;10.77;2.43;;;7.40;99.90;;;;;;5017835;28;20292;-82
2021/12/19 09:29:20;;;;;;;10.80;2.47;;;7.50;99.90;;;;;;5028193;28;20194;-82
2021/12/19 09:31:46;;;;;;;13.33;2.63;;;7.50;99.90;;;;;;5016589;28;20210;-80
2021/12/19 09:34:13;;;;;;;15.37;3.47;;;7.50;99.90;;;;;;5003317;28;20196;-83
2021/12/19 09:36:39;;;;;;;13.37;2.77;;;7.60;99.90;;;;;;5028092;28;20191;-82
2021/12/19 09:39:06;;;;;;;14.83;2.60;;;7.60;99.90;;;;;;5016911;28;20234;-82
2021/12/19 09:41:34;;;;;;;10.93;2.50;;;7.60;99.90;;;;;;5016706;28;20206;-82
2021/12/19 09:44:03;;;;;;;14.13;2.80;;;7.60;99.90;;;;;;5008214;28;20198;-81
2021/12/19 09:46:35;;;;;;;9.43;2.20;;;7.60;99.90;;;;;;5004001;28;20297;-81
2021/12/19 09:49:03;;;;;;;8.10;2.03;;;7.60;99.90;;;;;;5012058;28;20201;-82
2021/12/19 09:51:29;;;;;;;6.73;2.23;;;7.70;99.90;;;;;;5002227;28;20182;-81
2021/12/19 09:53:57;;;;;;;12.77;2.60;;;7.70;99.90;;;;;;5017714;28;20177;-81
2021/12/19 09:56:23;;;;;;;13.27;2.57;;;7.70;99.90;;;;;;5026982;28;20661;-83
2021/12/19 09:58:53;;;;;;;15.10;3.20;;;7.70;99.90;;;;;;5014628;28;20500;-82
2021/12/19 10:01:27;;;;;;;14.93;3.17;;;7.80;99.90;;;;;;5013215;28;20187;-82
2021/12/19 10:03:52;;;;;;;9.37;2.20;;;7.80;99.90;;;;;;5034088;28;20179;-83
2021/12/19 10:06:20;;;;;;;10.23;2.60;;;7.80;99.90;;;;;;5017633;28;20182;-84
2021/12/19 10:09:18;;;;;;;14.00;2.73;;;7.80;99.90;;;;;;5014664;28;20174;-81
2021/12/19 10:14:28;;;;;;;11.70;2.80;;;7.80;99.90;;;;;;5040958;28;20200;-80
2021/12/19 10:16:55;;;;;;;10.60;2.63;;;7.80;99.90;;;;;;5025496;28;20249;-80
2021/12/19 10:19:21;;;;;;;14.23;2.90;;;7.80;99.90;;;;;;5058234;28;20230;-82
2021/12/19 10:21:47;;;;;;;9.30;2.40;;;7.90;99.90;;;;;;5033345;28;20183;-82
2021/12/19 10:24:32;;;;;;;13.97;2.67;;;7.90;99.90;;;;;;5033031;28;20173;-82
2021/12/19 10:27:00;;;;;;;10.00;2.70;;;8.00;99.90;;;;;;5016941;28;20308;-82
2021/12/19 10:29:45;;;;;;;11.33;2.73;;;7.90;99.90;;;;;;5035873;28;20213;-82
2021/12/19 10:32:11;;;;;;;12.83;2.73;;;8.00;99.90;;;;;;5016254;28;20179;-83
2021/12/19 10:34:39;;;;;;;13.23;2.97;;;7.90;99.90;;;;;;5018455;28;20185;-82
2021/12/19 10:37:09;;;;;;;10.57;2.67;;;7.90;99.90;;;;;;5016426;28;20178;-83
2021/12/19 10:39:37;;;;;;;11.57;3.00;;;8.00;99.90;;;;;;5017890;28;20194;-82
2021/12/19 10:42:09;;;;;;;14.23;3.10;;;7.90;99.90;;;;;;5023932;28;20550;-82
2021/12/19 10:47:24;;;;;;;7.63;2.30;;;7.90;99.90;;;;;;5027196;28;20608;-80
2021/12/19 10:49:55;;;;;;;11.20;2.50;;;7.90;99.90;;;;;;5006838;28;20238;-86
2021/12/19 10:52:39;;;;;;;10.70;2.47;;;7.90;99.90;;;;;;5006680;28;20190;-83
2021/12/19 10:55:10;;;;;;;10.93;2.60;;;7.90;99.90;;;;;;5022669;28;20182;-84
2021/12/19 10:57:41;;;;;;;16.83;3.37;;;8.00;99.90;;;;;;5027077;23;20692;-82
2021/12/19 11:00:21;;;;;;;16.37;3.03;;;8.00;99.90;;;;;;5034795;28;20184;-82
2021/12/19 11:02:47;;;;;;;11.17;2.33;;;8.00;99.90;;;;;;5055559;28;20177;-82
2021/12/19 11:05:42;;;;;;;11.43;2.77;;;8.00;99.90;;;;;;5041510;28;20265;-83
2021/12/19 11:08:10;;;;;;;18.47;3.63;;;8.00;99.90;;;;;;5047023;28;20213;-82
2021/12/19 11:10:37;;;;;;;12.87;2.47;;;8.00;99.90;;;;;;5026409;28;20532;-82
2021/12/19 11:13:14;;;;;;;8.20;2.27;;;8.00;99.90;;;;;;5031674;28;20197;-81
2021/12/19 11:15:43;;;;;;;12.27;2.90;;;8.10;99.90;;;;;;5029732;28;20673;-83
2021/12/19 11:18:10;;;;;;;11.47;2.67;;;8.10;99.90;;;;;;5027865;28;20291;-83
2021/12/19 11:20:38;;;;;;;9.47;2.50;;;8.10;99.90;;;;;;5027775;28;20216;-82
2021/12/19 11:23:04;;;;;;;16.07;3.00;;;8.00;99.90;;;;;;5032298;28;20166;-84
2021/12/19 11:25:30;;;;;;;11.30;2.33;;;8.00;99.90;;;;;;5029988;28;20181;-83
2021/12/19 11:27:56;;;;;;;12.47;2.80;;;8.10;99.90;;;;;;5030076;28;20206;-84
2021/12/19 11:30:24;;;;;;;11.17;2.70;;;8.00;99.90;;;;;;5031716;28;20177;-84
2021/12/19 11:33:28;;;;;;;16.67;2.80;;;8.10;99.90;;;;;;5050642;28;20168;-80
2021/12/19 11:35:57;;;;;;;9.97;2.27;;;8.10;99.90;;;;;;5055306;28;20196;-82
2021/12/19 11:38:24;;;;;;;11.50;2.93;;;8.10;99.90;;;;;;5050822;28;20236;-82
2021/12/19 11:40:51;;;;;;;12.40;3.07;;;8.00;99.90;;;;;;5032871;28;20182;-83
2021/12/19 11:43:19;;;;;;;9.90;3.23;;;8.00;99.90;;;;;;5029296;28;20181;-82
2021/12/19 11:46:00;;;;;;;16.37;2.83;;;8.00;99.90;;;;;;5036463;28;20184;-83
2021/12/19 11:48:33;;;;;;;13.63;2.53;;;8.10;99.90;;;;;;5035376;28;20588;-81
2021/12/19 11:51:03;;;;;;;12.00;2.80;;;8.10;99.90;;;;;;5034653;28;20174;-83
2021/12/19 11:53:31;;;;;;;11.90;3.23;;;8.10;99.90;;;;;;5038776;28;20196;-82
2021/12/19 11:56:06;;;;;;;11.13;2.57;;;8.10;99.90;;;;;;5034186;28;20243;-83
2021/12/19 11:58:55;;;;;;;11.97;2.70;;;8.20;99.90;;;;;;5033088;28;20228;-82
2021/12/19 12:01:28;;;;;;;11.30;3.23;;;8.10;99.90;;;;;;5039060;28;20174;-82
2021/12/19 12:03:57;;;;;;;10.93;2.40;;;8.20;99.90;;;;;;5042097;28;20169;-84
2021/12/19 12:06:26;;;;;;;7.23;2.60;;;8.10;99.90;;;;;;5046149;28;20177;-83
2021/12/19 12:09:24;;;;;;;19.00;2.93;;;8.20;99.90;;;;;;5055676;28;20214;-85
2021/12/19 12:12:07;;;;;;;7.97;2.30;;;8.10;99.90;;;;;;5034399;28;20201;-82
2021/12/19 12:14:38;;;;;;;12.23;2.50;;;8.20;99.90;;;;;;5043237;28;20200;-87
2021/12/19 12:17:10;;;;;;;13.63;3.30;;;8.20;99.90;;;;;;5035397;28;20216;-83
2021/12/19 12:19:47;;;;;;;10.03;2.30;;;8.10;99.90;;;;;;5039726;28;20173;-81
2021/12/19 12:22:28;;;;;;;12.57;3.10;;;8.10;99.90;;;;;;5032377;28;20209;-80
2021/12/19 12:25:11;;;;;;;13.30;2.60;;;8.10;99.90;;;;;;5036464;28;20197;-83
2021/12/19 12:27:39;;;;;;;9.00;2.83;;;8.20;99.90;;;;;;5055304;28;20209;-84
2021/12/19 12:30:11;;;;;;;7.37;2.57;;;8.20;99.90;;;;;;5040085;28;20161;-83
2021/12/19 12:32:37;;;;;;;7.93;2.23;;;8.20;99.90;;;;;;5034273;28;20203;-81
2021/12/19 12:35:05;;;;;;;13.03;3.10;;;8.10;99.90;;;;;;5035954;28;20235;-85
2021/12/19 12:37:32;;;;;;;10.57;2.27;;;8.20;99.90;;;;;;5047135;28;20197;-82
2021/12/19 12:40:21;;;;;;;13.50;3.00;;;8.20;99.90;;;;;;5035364;28;20181;-82
2021/12/19 12:43:20;;;;;;;13.23;2.43;;;8.20;99.90;;;;;;5067885;28;20177;-84
2021/12/19 12:46:18;;;;;;;12.67;2.47;;;8.20;99.90;;;;;;5035979;28;20185;-84
2021/12/19 12:49:05;;;;;;;7.53;2.30;;;8.20;99.90;;;;;;5054845;28;20240;-83
2021/12/19 12:51:31;;;;;;;9.17;2.27;;;8.20;99.90;;;;;;5044125;28;20170;-80
2021/12/19 12:54:03;;;;;;;11.33;2.33;;;8.20;99.90;;;;;;5054191;28;20194;-81
2021/12/19 12:56:35;;;;;;;13.07;2.30;;;8.20;99.90;;;;;;5041152;28;20186;-83
2021/12/19 12:59:02;;;;;;;13.90;2.63;;;8.30;99.90;;;;;;5056284;28;20617;-81
2021/12/19 13:01:42;;;;;;;14.07;2.80;;;8.30;99.90;;;;;;5046889;28;20182;-81
2021/12/19 13:04:13;;;;;;;15.57;3.00;;;8.30;99.90;;;;;;5053000;28;20177;-81
2021/12/19 13:06:49;;;;;;;14.43;3.17;;;8.30;99.90;;;;;;5041998;28;20198;-80
2021/12/19 13:09:16;;;;;;;11.50;3.60;;;8.30;99.90;;;;;;5045146;28;20270;-79
2021/12/19 13:11:45;;;;;;;9.73;2.60;;;8.30;99.90;;;;;;5040582;28;20188;-79
2021/12/19 13:14:11;;;;;;;10.27;2.93;;;8.30;99.90;;;;;;5054014;28;20225;-80
2021/12/19 13:17:00;;;;;;;10.70;2.90;;;8.30;99.90;;;;;;5046599;28;20181;-81
2021/12/19 13:19:42;;;;;;;15.00;3.13;;;8.30;99.90;;;;;;5044140;28;20182;-80
2021/12/19 13:22:15;;;;;;;13.67;3.03;;;8.30;99.90;;;;;;5040049;28;20205;-82
2021/12/19 13:24:44;;;;;;;9.13;3.13;;;8.30;99.90;;;;;;5040356;28;20178;-83
2021/12/19 13:27:14;;;;;;;11.23;2.77;;;8.30;99.90;;;;;;5043042;28;20205;-81
2021/12/19 13:29:55;;;;;;;13.07;3.00;;;8.30;99.90;;;;;;5047244;28;20161;-82
2021/12/19 13:32:27;;;;;;;12.00;3.17;;;8.30;99.90;;;;;;5043563;28;20175;-82
2021/12/19 13:34:54;;;;;;;12.40;2.43;;;8.30;99.90;;;;;;5043713;28;20687;-81
2021/12/19 13:37:22;;;;;;;10.20;2.80;;;8.30;99.90;;;;;;5040599;28;20211;-82
2021/12/19 13:40:05;;;;;;;12.10;2.70;;;8.20;99.90;;;;;;5037614;28;20185;-83
2021/12/19 13:42:48;;;;;;;14.50;3.07;;;8.30;99.90;;;;;;5045439;28;20248;-81
2021/12/19 13:45:33;;;;;;;13.33;2.83;;;8.20;99.90;;;;;;5035327;28;20201;-83
2021/12/19 13:48:01;;;;;;;12.40;3.13;;;8.20;99.90;;;;;;5035930;28;20276;-82
2021/12/19 13:50:32;;;;;;;12.33;2.90;;;8.20;99.90;;;;;;5051474;28;20182;-82
2021/12/19 13:52:58;;;;;;;9.30;2.53;;;8.20;99.90;;;;;;5048876;28;20184;-83
2021/12/19 13:55:24;;;;;;;11.97;2.60;;;8.20;99.90;;;;;;5035157;28;20173;-83
2021/12/19 13:58:04;;;;;;;16.27;2.60;;;8.00;99.90;;;;;;5043028;28;20304;-82
2021/12/19 14:00:43;;;;;;;14.90;3.47;;;8.00;99.90;;;;;;5041513;28;20201;-81
2021/12/19 14:03:10;;;;;;;16.30;3.00;;;8.10;99.90;;;;;;5042756;28;20204;-83
2021/12/19 14:05:44;;;;;;;9.70;2.70;;;8.00;99.90;;;;;;5033229;28;20176;-82
2021/12/19 14:08:30;;;;;;;17.17;2.70;;;8.00;99.90;;;;;;5057813;28;20205;-82
2021/12/19 14:11:13;;;;;;;15.60;3.03;;;8.00;99.90;;;;;;5032863;28;20188;-82
2021/12/19 14:13:41;;;;;;;12.70;2.70;;;8.00;99.90;;;;;;5040830;28;20189;-82
2021/12/19 14:16:15;;;;;;;15.43;3.17;;;8.00;99.90;;;;;;5031069;28;20268;-82